createdAt,value
2023-03-30T00:00:18.630Z,45424.22
2023-03-30T00:02:47.375Z,45410.22
2023-03-30T00:05:14.054Z,45416.22
2023-03-30T00:07:42.205Z,45416.22
2023-03-30T00:10:14.594Z,45422.22
2023-03-30T00:12:43.439Z,45422.22
2023-03-30T00:15:12.173Z,45414.22
2023-03-30T00:17:39.631Z,45424.22
2023-03-30T00:20:11.575Z,45444.19
2023-03-30T00:22:42.530Z,45422.22
2023-03-30T00:25:12.010Z,45426.22
2023-03-30T00:27:39.751Z,45428.22
2023-03-30T00:30:08.985Z,45426.22
2023-03-30T00:32:36.225Z,45406.22
2023-03-30T00:35:02.664Z,45442.19
2023-03-30T00:37:29.691Z,45442.19
2023-03-30T00:39:56.596Z,45434.19
2023-03-30T00:42:23.143Z,45418.22
2023-03-30T00:45:20.804Z,45442.19
2023-03-30T00:48:01.172Z,45424.22
2023-03-30T00:50:34.940Z,45434.19
2023-03-30T00:53:07.083Z,45436.19
2023-03-30T00:55:36.055Z,45412.22
2023-03-30T00:58:04.217Z,45438.19
2023-03-30T01:00:30.837Z,45432.19
2023-03-30T01:03:01.491Z,45426.22
2023-03-30T01:05:29.384Z,45422.22
2023-03-30T01:07:58.984Z,45440.19
2023-03-30T01:10:25.996Z,45446.19
2023-03-30T01:12:52.676Z,45440.19
2023-03-30T01:15:20.464Z,45430.22
2023-03-30T01:17:57.995Z,45430.22
2023-03-30T01:20:46.736Z,45436.19
2023-03-30T01:23:40.861Z,45424.22
2023-03-30T01:26:35.480Z,45430.22
2023-03-30T01:29:16.683Z,45426.22
2023-03-30T01:32:01.853Z,45454.19
2023-03-30T01:34:53.044Z,45426.22
2023-03-30T01:37:31.306Z,45430.22
2023-03-30T01:40:09.904Z,45414.22
2023-03-30T01:43:08.397Z,45430.22
2023-03-30T01:46:01.048Z,45406.22
2023-03-30T01:48:33.074Z,45400.22
2023-03-30T01:51:05.683Z,45432.19
2023-03-30T01:53:44.248Z,45412.22
2023-03-30T01:56:19.100Z,45410.22
2023-03-30T01:58:54.077Z,45418.22
2023-03-30T02:01:21.272Z,45430.22
2023-03-30T02:03:53.403Z,45406.22
2023-03-30T02:06:40.707Z,45422.22
2023-03-30T02:09:10.996Z,45394.22
2023-03-30T02:11:42.303Z,45424.22
2023-03-30T02:14:11.992Z,45418.22
2023-03-30T02:16:45.616Z,45396.22
2023-03-30T02:19:12.268Z,45414.22
2023-03-30T02:21:38.725Z,45402.22
2023-03-30T02:24:08.596Z,45400.22
2023-03-30T02:26:36.795Z,45402.22
2023-03-30T02:29:03.986Z,45392.22
2023-03-30T02:31:30.764Z,45406.22
2023-03-30T02:34:12.980Z,45422.22
2023-03-30T02:37:00.225Z,45418.22
2023-03-30T02:39:41.634Z,45392.22
2023-03-30T02:42:24.687Z,45402.22
2023-03-30T02:45:14.045Z,45400.22
2023-03-30T02:47:59.991Z,45394.22
2023-03-30T02:50:52.675Z,45414.22
2023-03-30T02:54:09.431Z,45392.22
2023-03-30T02:57:10.738Z,45388.25
2023-03-30T02:59:43.388Z,45402.22
2023-03-30T03:02:20.066Z,45410.22
2023-03-30T03:04:53.416Z,45402.22
2023-03-30T03:07:41.177Z,45406.22
2023-03-30T03:10:08.881Z,45410.22
2023-03-30T03:12:35.954Z,45416.22
2023-03-30T03:15:03.935Z,45402.22
2023-03-30T03:17:36.501Z,45408.22
2023-03-30T03:20:04.842Z,45398.22
2023-03-30T03:22:31.916Z,45418.22
2023-03-30T03:24:58.401Z,45398.22
2023-03-30T03:27:47.141Z,45398.22
2023-03-30T03:30:19.721Z,45426.22
2023-03-30T03:32:57.057Z,45406.22
2023-03-30T03:35:27.397Z,45390.25
2023-03-30T03:37:53.847Z,45410.22
2023-03-30T03:40:20.724Z,45400.22
2023-03-30T03:42:47.238Z,45408.22
2023-03-30T03:45:14.534Z,45398.22
2023-03-30T03:47:52.038Z,45408.22
2023-03-30T03:50:24.406Z,45390.25
2023-03-30T03:52:52.096Z,45414.22
2023-03-30T03:55:18.602Z,45408.22
2023-03-30T03:57:46.425Z,45396.22
2023-03-30T04:00:19.123Z,45402.22
2023-03-30T04:02:50.475Z,45414.22
2023-03-30T04:05:17.116Z,45418.22
2023-03-30T04:07:46.362Z,45418.22
2023-03-30T04:10:14.045Z,45398.22
2023-03-30T04:12:45.864Z,45402.22
2023-03-30T04:15:33.526Z,45406.22
2023-03-30T04:18:21.572Z,45398.22
2023-03-30T04:20:59.678Z,45402.22
2023-03-30T04:23:45.637Z,45390.25
2023-03-30T04:26:17.795Z,45410.22
2023-03-30T04:29:08.791Z,45394.22
2023-03-30T04:31:46.841Z,45388.25
2023-03-30T04:34:46.498Z,45390.25
2023-03-30T04:37:31.520Z,45394.22
2023-03-30T04:40:19.461Z,45390.25
2023-03-30T04:43:04.576Z,45396.22
2023-03-30T04:46:06.205Z,45388.25
2023-03-30T04:48:57.693Z,45386.25
2023-03-30T04:51:40.763Z,45390.25
2023-03-30T04:54:09.792Z,45390.25
2023-03-30T04:56:55.450Z,45396.22
2023-03-30T04:59:34.130Z,45394.22
2023-03-30T05:02:12.644Z,45390.25
2023-03-30T05:05:10.875Z,45390.25
2023-03-30T05:07:58.569Z,45384.25
2023-03-30T05:10:29.788Z,45386.25
2023-03-30T05:13:14.020Z,45412.22
2023-03-30T05:16:07.085Z,45400.22
2023-03-30T05:18:54.027Z,45390.25
2023-03-30T05:21:37.875Z,45392.22
2023-03-30T05:24:22.967Z,45376.25
2023-03-30T05:27:07.890Z,45398.22
2023-03-30T05:29:55.412Z,45380.25
2023-03-30T05:32:24.651Z,45394.22
2023-03-30T05:35:09.022Z,45388.25
2023-03-30T05:38:11.007Z,45386.25
2023-03-30T05:40:49.628Z,45392.22
2023-03-30T05:43:25.228Z,45390.25
2023-03-30T05:46:15.048Z,45378.25
2023-03-30T05:49:17.155Z,45388.25
2023-03-30T05:51:52.001Z,45394.22
2023-03-30T05:54:30.370Z,45410.22
2023-03-30T05:57:09.435Z,45384.25
2023-03-30T06:00:10.339Z,45406.22
2023-03-30T06:02:47.101Z,45402.22
2023-03-30T06:05:17.261Z,45404.22
2023-03-30T06:07:45.668Z,45410.22
2023-03-30T06:10:12.980Z,45400.22
2023-03-30T06:12:40.830Z,45386.25
2023-03-30T06:15:15.205Z,45390.25
2023-03-30T06:17:47.699Z,45372.25
2023-03-30T06:20:14.491Z,45382.25
2023-03-30T06:22:44.878Z,45398.22
2023-03-30T06:25:19.955Z,45392.22
2023-03-30T06:27:47.556Z,45398.22
2023-03-30T06:30:15.287Z,45386.25
2023-03-30T06:32:45.180Z,45398.22
2023-03-30T06:35:24.905Z,45374.25
2023-03-30T06:37:52.645Z,45398.22
2023-03-30T06:40:19.621Z,45384.25
2023-03-30T06:42:49.106Z,45386.25
2023-03-30T06:45:34.410Z,45402.22
2023-03-30T06:48:01.042Z,45400.22
2023-03-30T06:50:28.346Z,45394.22
2023-03-30T06:53:01.760Z,45384.25
2023-03-30T06:55:35.684Z,45380.25
2023-03-30T06:58:02.248Z,45384.25
2023-03-30T07:00:29.661Z,45386.25
2023-03-30T07:03:31.123Z,45392.22
2023-03-30T07:06:21.360Z,45382.25
2023-03-30T07:08:49.030Z,45392.22
2023-03-30T07:11:20.660Z,45382.25
2023-03-30T07:13:47.177Z,45382.25
2023-03-30T07:16:13.920Z,45380.25
2023-03-30T07:18:40.701Z,45378.25
2023-03-30T07:21:07.468Z,45378.25
2023-03-30T07:23:41.501Z,45366.25
2023-03-30T07:26:10.225Z,45394.22
2023-03-30T07:28:51.528Z,45394.22
2023-03-30T07:31:21.764Z,45370.25
2023-03-30T07:33:49.039Z,45382.25
2023-03-30T07:36:20.229Z,45390.25
2023-03-30T07:38:46.845Z,45376.25
2023-03-30T07:41:15.539Z,45382.25
2023-03-30T07:43:46.424Z,45398.22
2023-03-30T07:46:13.461Z,45374.25
2023-03-30T07:48:44.417Z,45384.25
2023-03-30T07:51:13.496Z,45402.22
2023-03-30T07:53:51.267Z,45386.25
2023-03-30T07:56:23.971Z,45382.25
2023-03-30T07:58:54.023Z,45376.25
2023-03-30T08:01:25.366Z,45378.25
2023-03-30T08:04:11.723Z,45394.22
2023-03-30T08:06:39.741Z,45372.25
2023-03-30T08:09:06.366Z,45382.25
2023-03-30T08:11:35.712Z,45378.25
2023-03-30T08:14:03.238Z,45390.25
2023-03-30T08:16:30.343Z,45380.25
2023-03-30T08:18:56.969Z,45378.25
2023-03-30T08:21:25.963Z,45386.25
2023-03-30T08:23:53.367Z,45378.25
2023-03-30T08:26:20.488Z,45378.25
2023-03-30T08:28:47.305Z,45370.25
2023-03-30T08:31:17.990Z,45380.25
2023-03-30T08:33:44.909Z,45354.25
2023-03-30T08:36:12.579Z,45378.25
2023-03-30T08:38:39.823Z,45382.25
2023-03-30T08:41:39.475Z,45386.25
2023-03-30T08:44:27.836Z,45378.25
2023-03-30T08:46:54.937Z,45370.25
2023-03-30T08:49:22.237Z,45374.25
2023-03-30T08:51:51.995Z,45398.22
2023-03-30T08:54:20.677Z,45366.25
2023-03-30T08:57:17.783Z,45368.25
2023-03-30T09:00:06.700Z,45382.25
2023-03-30T09:02:42.785Z,45374.25
2023-03-30T09:06:05.012Z,45378.25
2023-03-30T09:08:33.827Z,45380.25
2023-03-30T09:11:02.970Z,45360.25
2023-03-30T09:13:36.212Z,45364.25
2023-03-30T09:16:14.600Z,45372.25
2023-03-30T09:18:43.499Z,45378.25
2023-03-30T09:21:12.411Z,45388.25
2023-03-30T09:23:39.784Z,45390.25
2023-03-30T09:26:35.280Z,45382.25
2023-03-30T09:29:14.032Z,45390.25
2023-03-30T09:31:48.279Z,45364.25
2023-03-30T09:34:25.041Z,45370.25
2023-03-30T09:37:04.954Z,45364.25
2023-03-30T09:39:35.260Z,45366.25
2023-03-30T09:42:26.693Z,45378.25
2023-03-30T09:45:13.610Z,45374.25
2023-03-30T09:47:42.267Z,45402.22
2023-03-30T09:50:30.591Z,45378.25
2023-03-30T09:53:00.727Z,45366.25
2023-03-30T09:55:32.376Z,45386.25
2023-03-30T09:58:17.642Z,45378.25
2023-03-30T10:00:45.646Z,45368.25
2023-03-30T10:03:21.819Z,45378.25
2023-03-30T10:06:05.321Z,45366.25
2023-03-30T10:08:32.706Z,45356.25
2023-03-30T10:11:00.585Z,45388.25
2023-03-30T10:13:49.116Z,45364.25
2023-03-30T10:16:25.810Z,45374.25
2023-03-30T10:19:04.483Z,45370.25
2023-03-30T10:21:37.374Z,45376.25
2023-03-30T10:24:18.955Z,45372.25
2023-03-30T10:26:50.562Z,45366.25
2023-03-30T10:29:19.491Z,45362.25
2023-03-30T10:31:49.080Z,45386.25
2023-03-30T10:34:20.662Z,45358.25
2023-03-30T10:36:50.640Z,45362.25
2023-03-30T10:39:29.612Z,45380.25
2023-03-30T10:41:59.840Z,45368.25
2023-03-30T10:44:42.966Z,45374.25
2023-03-30T10:47:40.694Z,45350.28
2023-03-30T10:50:18.949Z,45382.25
2023-03-30T10:53:23.128Z,45366.25
2023-03-30T10:55:52.186Z,45374.25
2023-03-30T10:58:46.087Z,45366.25
2023-03-30T11:01:32.142Z,45350.28
2023-03-30T11:04:20.559Z,45330.28
2023-03-30T11:06:53.417Z,45350.28
2023-03-30T11:09:27.752Z,45358.25
2023-03-30T11:12:04.972Z,45364.25
2023-03-30T11:14:43.927Z,45342.28
2023-03-30T11:17:25.835Z,45342.28
2023-03-30T11:19:56.655Z,45350.28
2023-03-30T11:22:41.537Z,45340.28
2023-03-30T11:25:20.686Z,45328.28
2023-03-30T11:28:06.601Z,45330.28
2023-03-30T11:30:35.230Z,45338.28
2023-03-30T11:33:37.846Z,45336.28
2023-03-30T11:36:17.823Z,45322.28
2023-03-30T11:38:50.369Z,45308.31
2023-03-30T11:41:23.880Z,45306.31
2023-03-30T11:43:55.665Z,45348.28
2023-03-30T11:46:52.276Z,45340.28
2023-03-30T11:49:40.358Z,45342.28
2023-03-30T11:52:28.782Z,45334.28
2023-03-30T11:55:07.055Z,45338.28
2023-03-30T11:57:43.977Z,45346.28
2023-03-30T12:00:27.882Z,45332.28
2023-03-30T12:03:15.212Z,45350.28
2023-03-30T12:05:48.635Z,45332.28
2023-03-30T12:08:39.919Z,45326.28
2023-03-30T12:11:16.293Z,45330.28
2023-03-30T12:13:51.304Z,45328.28
2023-03-30T12:16:32.529Z,45334.28
2023-03-30T12:19:14.811Z,45322.28
2023-03-30T12:21:58.953Z,45322.28
2023-03-30T12:24:33.394Z,45324.28
2023-03-30T12:27:06.093Z,45306.31
2023-03-30T12:30:02.391Z,45342.28
2023-03-30T12:32:30.848Z,45324.28
2023-03-30T12:34:58.109Z,45316.28
2023-03-30T12:37:35.591Z,45322.28
2023-03-30T12:40:14.448Z,45342.28
2023-03-30T12:42:55.829Z,45346.28
2023-03-30T12:45:31.815Z,45362.25
2023-03-30T12:48:04.292Z,45380.25
2023-03-30T12:50:51.760Z,45374.25
2023-03-30T12:53:52.252Z,45398.22
2023-03-30T12:56:47.831Z,45418.22
2023-03-30T12:59:32.675Z,45402.22
2023-03-30T13:02:08.122Z,45388.25
2023-03-30T13:04:39.418Z,45402.22
2023-03-30T13:07:17.992Z,45366.25
2023-03-30T13:09:59.148Z,45390.25
2023-03-30T13:12:35.811Z,45366.25
2023-03-30T13:15:31.860Z,45340.28
2023-03-30T13:18:00.232Z,45350.28
2023-03-30T13:20:56.278Z,45346.28
2023-03-30T13:23:22.740Z,45320.28
2023-03-30T13:26:02.048Z,45314.28
2023-03-30T13:28:54.744Z,45314.28
2023-03-30T13:31:59.451Z,45312.31
2023-03-30T13:34:58.941Z,45302.31
2023-03-30T13:37:52.395Z,45294.31
2023-03-30T13:40:35.082Z,45294.31
2023-03-30T13:43:20.823Z,45282.31
2023-03-30T13:46:13.154Z,45282.31
2023-03-30T13:49:02.254Z,45258.34
2023-03-30T13:51:30.586Z,45256.34
2023-03-30T13:54:05.496Z,45250.34
2023-03-30T13:56:35.511Z,45254.34
2023-03-30T13:59:06.435Z,45264.34
2023-03-30T14:01:34.797Z,45248.34
2023-03-30T14:04:03.609Z,45250.34
2023-03-30T14:06:34.215Z,45250.34
2023-03-30T14:09:05.340Z,45252.34
2023-03-30T14:11:39.078Z,45262.34
2023-03-30T14:14:06.632Z,45256.34
2023-03-30T14:16:36.939Z,45248.34
2023-03-30T14:19:15.507Z,45244.34
2023-03-30T14:21:47.297Z,45258.34
2023-03-30T14:24:17.542Z,45258.34
2023-03-30T14:26:47.348Z,45258.34
2023-03-30T14:29:30.459Z,45266.34
2023-03-30T14:32:08.221Z,45270.34
2023-03-30T14:34:35.901Z,45290.31
2023-03-30T14:37:08.118Z,45274.34
2023-03-30T14:39:41.471Z,45270.34
2023-03-30T14:42:18.714Z,45282.31
2023-03-30T14:44:48.560Z,45298.31
2023-03-30T14:47:18.609Z,45274.34
2023-03-30T14:49:47.342Z,45286.31
2023-03-30T14:52:37.716Z,45268.34
2023-03-30T14:55:09.935Z,45254.34
2023-03-30T14:57:40.351Z,45282.31
2023-03-30T15:00:22.803Z,45266.34
2023-03-30T15:02:56.788Z,45286.31
2023-03-30T15:05:28.365Z,45274.34
2023-03-30T15:07:55.241Z,45270.34
2023-03-30T15:10:28.245Z,45282.31
2023-03-30T15:12:57.318Z,45290.31
2023-03-30T15:15:29.488Z,45304.31
2023-03-30T15:17:56.717Z,45310.31
2023-03-30T15:20:26.576Z,45322.28
2023-03-30T15:22:54.199Z,45328.28
2023-03-30T15:25:27.169Z,45338.28
2023-03-30T15:28:09.426Z,45346.28
2023-03-30T15:30:42.543Z,45332.28
2023-03-30T15:33:31.734Z,45338.28
2023-03-30T15:36:05.438Z,45336.28
2023-03-30T15:38:36.020Z,45346.28
2023-03-30T15:41:02.880Z,45318.28
2023-03-30T15:43:33.176Z,45342.28
2023-03-30T15:46:06.786Z,45336.28
2023-03-30T15:48:45.269Z,45322.28
2023-03-30T15:51:16.817Z,45326.28
2023-03-30T15:54:13.449Z,45346.28
2023-03-30T15:56:52.743Z,45346.28
2023-03-30T15:59:21.650Z,45346.28
2023-03-30T16:01:55.735Z,45348.28
2023-03-30T16:04:24.435Z,45318.28
2023-03-30T16:06:52.625Z,45334.28
2023-03-30T16:09:19.143Z,45350.28
2023-03-30T16:11:46.513Z,45338.28
2023-03-30T16:14:16.810Z,45346.28
2023-03-30T16:16:43.798Z,45330.28
2023-03-30T16:19:12.470Z,45326.28
2023-03-30T16:21:38.847Z,45342.28
2023-03-30T16:24:05.899Z,45346.28
2023-03-30T16:26:32.355Z,45342.28
2023-03-30T16:28:58.819Z,45340.28
2023-03-30T16:31:25.323Z,45330.28
2023-03-30T16:33:51.963Z,45350.28
2023-03-30T16:36:21.367Z,45350.28
2023-03-30T16:38:48.536Z,45356.25
2023-03-30T16:41:23.065Z,45358.25
2023-03-30T16:43:50.061Z,45342.28
2023-03-30T16:46:19.272Z,45346.28
2023-03-30T16:48:46.294Z,45346.28
2023-03-30T16:51:14.482Z,45358.25
2023-03-30T16:53:41.901Z,45370.25
2023-03-30T16:56:18.675Z,45362.25
2023-03-30T16:58:46.642Z,45346.28
2023-03-30T17:01:18.109Z,45370.25
2023-03-30T17:03:45.385Z,45384.25
2023-03-30T17:06:11.848Z,45396.22
2023-03-30T17:08:38.543Z,45384.25
2023-03-30T17:11:08.080Z,45392.22
2023-03-30T17:13:34.816Z,45386.25
2023-03-30T17:16:02.693Z,45382.25
2023-03-30T17:18:30.239Z,45394.22
2023-03-30T17:20:58.421Z,45422.22
2023-03-30T17:23:30.220Z,45410.22
2023-03-30T17:25:59.452Z,45416.22
2023-03-30T17:28:34.258Z,45418.22
2023-03-30T17:31:03.567Z,45426.22
2023-03-30T17:33:34.131Z,45424.22
2023-03-30T17:36:25.691Z,45416.22
2023-03-30T17:38:52.644Z,45414.22
2023-03-30T17:41:20.565Z,45408.22
2023-03-30T17:43:48.193Z,45416.22
2023-03-30T17:46:17.109Z,45422.22
2023-03-30T17:48:44.568Z,45434.19
2023-03-30T17:51:10.969Z,45406.22
2023-03-30T17:53:37.636Z,45428.22
2023-03-30T17:56:04.297Z,45440.19
2023-03-30T17:58:33.975Z,45422.22
2023-03-30T18:01:02.430Z,45422.22
2023-03-30T18:03:29.415Z,45430.22
2023-03-30T18:05:57.688Z,45422.22
2023-03-30T18:08:24.357Z,45434.19
2023-03-30T18:10:56.419Z,45450.19
2023-03-30T18:13:24.186Z,45450.19
2023-03-30T18:15:54.511Z,45422.22
2023-03-30T18:18:24.466Z,45438.19
2023-03-30T18:20:52.997Z,45416.22
2023-03-30T18:23:19.850Z,45420.22
2023-03-30T18:25:46.724Z,45436.19
2023-03-30T18:28:17.306Z,45428.22
2023-03-30T18:30:44.418Z,45434.19
2023-03-30T18:33:11.079Z,45448.19
2023-03-30T18:35:38.429Z,45444.19
2023-03-30T18:38:05.974Z,45428.22
2023-03-30T18:40:37.137Z,45414.22
2023-03-30T18:43:04.752Z,45446.19
2023-03-30T18:45:34.367Z,45466.19
2023-03-30T18:48:01.866Z,45418.22
2023-03-30T18:50:37.751Z,45440.19
2023-03-30T18:53:08.074Z,45426.22
2023-03-30T18:55:37.463Z,45446.19
2023-03-30T18:58:08.681Z,45436.19
2023-03-30T19:00:35.349Z,45438.19
2023-03-30T19:03:02.566Z,45436.19
2023-03-30T19:05:31.236Z,45422.22
2023-03-30T19:07:57.812Z,45450.19
2023-03-30T19:10:28.133Z,45440.19
2023-03-30T19:12:55.579Z,45442.19
2023-03-30T19:15:25.811Z,45436.19
2023-03-30T19:17:53.264Z,45454.19
2023-03-30T19:20:23.224Z,45418.22
2023-03-30T19:22:50.834Z,45426.22
2023-03-30T19:25:19.732Z,45446.19
2023-03-30T19:28:01.343Z,45418.22
2023-03-30T19:30:32.106Z,45434.19
2023-03-30T19:33:00.879Z,45444.19
2023-03-30T19:35:28.298Z,45422.22
2023-03-30T19:37:55.308Z,45438.19
2023-03-30T19:40:23.231Z,45432.19
2023-03-30T19:42:49.727Z,45438.19
2023-03-30T19:45:18.846Z,45442.19
2023-03-30T19:47:45.433Z,45422.22
2023-03-30T19:50:15.581Z,45440.19
2023-03-30T19:52:42.450Z,45450.19
2023-03-30T19:55:10.466Z,45428.22
2023-03-30T19:57:38.076Z,45438.19
2023-03-30T20:00:12.325Z,45428.22
2023-03-30T20:02:44.132Z,45430.22
2023-03-30T20:05:12.680Z,45424.22
2023-03-30T20:07:39.853Z,45432.19
2023-03-30T20:10:07.554Z,45442.19
2023-03-30T20:12:34.916Z,45444.19
2023-03-30T20:15:01.510Z,45430.22
2023-03-30T20:17:29.917Z,45450.19
2023-03-30T20:19:57.998Z,45450.19
2023-03-30T20:22:25.387Z,45446.19
2023-03-30T20:24:51.810Z,45450.19
2023-03-30T20:27:18.214Z,45458.19
2023-03-30T20:29:44.601Z,45436.19
2023-03-30T20:32:10.970Z,45436.19
2023-03-30T20:34:37.385Z,45442.19
2023-03-30T20:37:03.821Z,45446.19
2023-03-30T20:39:30.238Z,45448.19
2023-03-30T20:41:58.241Z,45446.19
2023-03-30T20:44:29.915Z,45446.19
2023-03-30T20:46:58.048Z,45446.19
2023-03-30T20:49:25.753Z,45458.19
2023-03-30T20:51:53.032Z,45446.19
2023-03-30T20:54:20.531Z,45458.19
2023-03-30T20:56:47.003Z,45442.19
2023-03-30T20:59:13.442Z,45450.19
2023-03-30T21:01:41.114Z,45466.19
2023-03-30T21:04:08.091Z,45446.19
2023-03-30T21:06:35.995Z,45444.19
2023-03-30T21:09:05.883Z,45438.19
2023-03-30T21:11:35.088Z,45460.19
2023-03-30T21:14:02.244Z,45450.19
2023-03-30T21:16:29.057Z,45442.19
2023-03-30T21:18:55.702Z,45432.19
2023-03-30T21:21:22.257Z,45454.19
2023-03-30T21:23:48.826Z,45434.19
2023-03-30T21:26:15.766Z,45454.19
2023-03-30T21:28:42.288Z,45458.19
2023-03-30T21:31:11.856Z,45450.19
2023-03-30T21:33:38.255Z,45458.19
2023-03-30T21:36:05.426Z,45462.19
2023-03-30T21:38:32.779Z,45466.19
2023-03-30T21:41:01.970Z,45454.19
2023-03-30T21:43:34.164Z,45446.19
2023-03-30T21:46:03.365Z,45466.19
2023-03-30T21:48:32.338Z,45446.19
2023-03-30T21:51:05.403Z,45466.19
2023-03-30T21:53:32.578Z,45466.19
2023-03-30T21:55:59.845Z,45474.16
2023-03-30T21:58:27.195Z,45466.19
2023-03-30T22:01:08.587Z,45454.19
2023-03-30T22:03:38.783Z,45464.19
2023-03-30T22:06:07.936Z,45466.19
2023-03-30T22:08:35.275Z,45458.19
2023-03-30T22:11:04.600Z,45454.19
2023-03-30T22:13:31.433Z,45462.19
2023-03-30T22:16:01.040Z,45466.19
2023-03-30T22:18:28.350Z,45460.19
2023-03-30T22:20:58.801Z,45458.19
2023-03-30T22:23:25.312Z,45460.19
2023-03-30T22:25:52.163Z,45458.19
2023-03-30T22:28:18.668Z,45474.16
2023-03-30T22:30:45.661Z,45460.19
2023-03-30T22:33:12.737Z,45482.16
2023-03-30T22:35:41.456Z,45462.19
2023-03-30T22:38:09.135Z,45466.19
2023-03-30T22:40:36.218Z,45466.19
2023-03-30T22:43:03.381Z,45454.19
2023-03-30T22:45:30.470Z,45454.19
2023-03-30T22:47:57.578Z,45466.19
2023-03-30T22:50:25.563Z,45484.16
2023-03-30T22:52:53.911Z,45458.19
2023-03-30T22:55:21.437Z,45456.19
2023-03-30T22:57:48.075Z,45468.19
2023-03-30T23:00:17.100Z,45466.19
2023-03-30T23:02:44.356Z,45470.19
2023-03-30T23:05:14.910Z,45474.16
2023-03-30T23:07:44.193Z,45476.16
2023-03-30T23:10:15.132Z,45470.19
2023-03-30T23:12:43.004Z,45458.19
2023-03-30T23:15:11.036Z,45474.16
2023-03-30T23:17:37.945Z,45480.16
2023-03-30T23:20:06.503Z,45450.19
2023-03-30T23:22:32.922Z,45462.19
2023-03-30T23:24:59.412Z,45460.19
2023-03-30T23:27:25.980Z,45466.19
2023-03-30T23:29:52.594Z,45478.16
2023-03-30T23:32:19.242Z,45480.16
2023-03-30T23:34:46.458Z,45494.16
2023-03-30T23:37:12.925Z,45474.16
2023-03-30T23:39:39.311Z,45476.16
2023-03-30T23:42:06.759Z,45464.19
2023-03-30T23:44:33.289Z,45478.16
2023-03-30T23:46:59.802Z,45474.16
2023-03-30T23:49:26.339Z,45462.19
2023-03-30T23:51:53.339Z,45490.16
2023-03-30T23:54:19.830Z,45466.19
2023-03-30T23:56:46.950Z,45490.16
2023-03-30T23:59:13.514Z,45470.19
